Time;durP1;ratioP1;P1;durP2;ratioP2;P2;SDS_P1;SDS_P2;PMS_P1;PMS_P2;Temp;Humidity;BMP_temperature;BMP_pressure;BME280_temperature;BME280_humidity;BME280_pressure;Samples;Min_cycle;Max_cycle;Signal;HPM_P1;HPM_P2
2022/08/26 00:01:36;;;;;;;;;;;21.90;92.60;;;;;;4942212;28;19930;-74
2022/08/26 00:04:03;;;;;;;;;;;21.90;92.70;;;;;;4946521;28;19935;-73
2022/08/26 00:06:32;;;;;;;;;;;21.90;92.70;;;;;;4943744;28;19966;-73
2022/08/26 00:09:00;;;;;;;;;;;21.90;92.70;;;;;;4945900;28;19926;-74
2022/08/26 00:11:27;;;;;;;;;;;21.80;92.60;;;;;;4945244;28;20420;-73
2022/08/26 00:13:55;;;;;;;;;;;21.80;92.70;;;;;;4931498;28;20393;-73
2022/08/26 00:16:22;;;;;;;;;;;21.80;92.70;;;;;;4948460;28;19927;-74
2022/08/26 00:18:49;;;;;;;;;;;21.80;92.70;;;;;;4933097;29;19937;-73
2022/08/26 00:21:17;;;;;;;;;;;21.70;92.70;;;;;;4944283;28;19927;-74
2022/08/26 00:23:44;;;;;;;;;;;21.70;92.70;;;;;;4944142;28;19940;-73
2022/08/26 00:26:13;;;;;;;;;;;21.70;92.80;;;;;;4943652;28;19927;-73
2022/08/26 00:28:40;;;;;;;;;;;21.70;92.80;;;;;;4953105;28;19926;-73
2022/08/26 00:31:07;;;;;;;;;;;21.60;92.80;;;;;;4949139;28;20021;-73
2022/08/26 00:33:34;;;;;;;;;;;21.60;92.90;;;;;;4940439;28;19927;-73
2022/08/26 00:36:02;;;;;;;;;;;21.60;92.90;;;;;;4941043;28;20009;-74
2022/08/26 00:38:29;;;;;;;;;;;21.60;92.90;;;;;;4937867;28;19934;-73
2022/08/26 00:40:57;;;;;;;;;;;21.60;92.90;;;;;;4943199;28;19930;-74
2022/08/26 00:43:26;;;;;;;;;;;21.50;92.90;;;;;;4946283;28;19927;-74
2022/08/26 00:45:55;;;;;;;;;;;21.50;92.90;;;;;;4945284;28;19927;-73
2022/08/26 00:48:24;;;;;;;;;;;21.50;93.00;;;;;;4942876;28;19933;-74
2022/08/26 00:50:53;;;;;;;;;;;21.40;93.00;;;;;;4941072;28;21343;-74
2022/08/26 00:53:23;;;;;;;;;;;21.40;93.00;;;;;;4942813;28;20393;-74
2022/08/26 00:55:54;;;;;;;;;;;21.40;93.00;;;;;;4945218;28;19968;-73
2022/08/26 00:58:22;;;;;;;;;;;21.40;93.00;;;;;;4944833;23;19927;-89
2022/08/26 01:00:50;;;;;;;;;;;21.40;92.90;;;;;;4953797;28;19954;-89
2022/08/26 01:03:19;;;;;;;;;;;21.30;92.90;;;;;;4943786;29;19927;-90
2022/08/26 01:05:46;;;;;;;;;;;21.30;92.90;;;;;;4957901;28;19926;-88
2022/08/26 01:08:13;;;;;;;;;;;21.30;92.90;;;;;;4950900;28;20059;-90
2022/08/26 01:10:40;;;;;;;;;;;21.30;92.60;;;;;;4940355;29;19995;-90
2022/08/26 01:13:09;;;;;;;;;;;21.30;92.90;;;;;;4959045;29;19981;-89
2022/08/26 01:15:40;;;;;;;;;;;21.20;92.90;;;;;;4957163;28;19927;-89
2022/08/26 01:18:10;;;;;;;;;;;21.20;92.90;;;;;;4957945;28;19927;-89
2022/08/26 01:20:40;;;;;;;;;;;21.20;92.90;;;;;;4957600;28;19930;-90
2022/08/26 01:23:09;;;;;;;;;;;21.20;93.00;;;;;;4958472;28;19931;-90
2022/08/26 01:25:38;;;;;;;;;;;21.20;93.00;;;;;;4954485;28;19950;-90
2022/08/26 01:28:06;;;;;;;;;;;21.10;92.90;;;;;;4953758;28;20393;-89
2022/08/26 01:30:34;;;;;;;;;;;21.10;93.00;;;;;;4967057;28;20468;-90
2022/08/26 01:33:03;;;;;;;;;;;21.10;93.00;;;;;;4968571;28;19930;-90
2022/08/26 01:35:31;;;;;;;;;;;21.00;93.00;;;;;;4941497;29;19927;-89
2022/08/26 01:37:59;;;;;;;;;;;21.00;93.00;;;;;;4959900;28;19933;-88
2022/08/26 01:40:30;;;;;;;;;;;21.00;93.00;;;;;;4955810;28;19942;-89
2022/08/26 01:42:58;;;;;;;;;;;20.90;92.90;;;;;;4954366;29;19973;-89
2022/08/26 01:45:26;;;;;;;;;;;21.00;93.00;;;;;;4945081;29;19934;-89
2022/08/26 01:47:54;;;;;;;;;;;21.00;93.00;;;;;;4960410;28;19926;-89
2022/08/26 01:50:23;;;;;;;;;;;20.90;93.00;;;;;;4944442;28;19930;-89
2022/08/26 01:52:50;;;;;;;;;;;20.90;93.00;;;;;;4960783;28;19945;-89
2022/08/26 01:55:19;;;;;;;;;;;20.90;93.00;;;;;;4951643;28;20773;-88
2022/08/26 01:57:49;;;;;;;;;;;20.90;93.00;;;;;;4957502;28;19950;-89
2022/08/26 02:00:16;;;;;;;;;;;20.90;93.10;;;;;;4965305;28;19935;-90
2022/08/26 02:02:43;;;;;;;;;;;20.80;93.10;;;;;;4951703;29;19926;-88
2022/08/26 02:05:14;;;;;;;;;;;20.80;93.20;;;;;;4944864;29;19934;-89
2022/08/26 02:07:42;;;;;;;;;;;20.80;93.20;;;;;;4948895;29;19930;-90
2022/08/26 02:10:09;;;;;;;;;;;20.70;94.00;;;;;;4963696;28;19927;-88
2022/08/26 02:12:37;;;;;;;;;;;20.80;93.20;;;;;;4947406;29;19967;-88
2022/08/26 02:15:08;;;;;;;;;;;20.70;93.20;;;;;;4960150;28;20435;-89
2022/08/26 02:17:36;;;;;;;;;;;;;;;;;;4965756;28;19934;-89
2022/08/26 02:20:08;;;;;;;;;;;20.70;93.00;;;;;;4965269;28;21230;-86
2022/08/26 02:22:35;;;;;;;;;;;20.70;93.20;;;;;;4946621;28;19930;-88
2022/08/26 02:25:09;;;;;;;;;;;20.60;93.20;;;;;;4952302;29;19926;-88
2022/08/26 02:27:37;;;;;;;;;;;20.60;93.10;;;;;;4945210;29;20040;-89
2022/08/26 02:30:09;;;;;;;;;;;20.60;93.10;;;;;;4948627;28;19942;-89
2022/08/26 02:32:36;;;;;;;;;;;20.60;93.10;;;;;;4953670;28;19918;-88
2022/08/26 02:35:10;;;;;;;;;;;20.60;93.10;;;;;;4966329;29;19953;-88
2022/08/26 02:37:37;;;;;;;;;;;20.50;93.10;;;;;;4955752;29;19926;-90
2022/08/26 02:40:06;;;;;;;;;;;20.50;93.10;;;;;;4948911;29;20021;-89
2022/08/26 02:42:34;;;;;;;;;;;20.50;93.10;;;;;;4963321;28;19927;-87
2022/08/26 02:45:01;;;;;;;;;;;20.50;93.10;;;;;;4951655;29;19926;-88
2022/08/26 02:47:32;;;;;;;;;;;20.50;93.10;;;;;;4961332;28;19983;-88
2022/08/26 02:49:59;;;;;;;;;;;20.40;93.10;;;;;;4957043;29;19926;-89
2022/08/26 02:52:29;;;;;;;;;;;20.40;93.20;;;;;;4962463;28;19960;-89
2022/08/26 02:54:56;;;;;;;;;;;20.40;93.10;;;;;;4968946;28;19926;-88
2022/08/26 02:57:23;;;;;;;;;;;20.40;93.10;;;;;;4950711;29;19910;-89
2022/08/26 02:59:51;;;;;;;;;;;20.40;93.20;;;;;;4977540;28;19925;-87
2022/08/26 03:02:20;;;;;;;;;;;20.40;93.30;;;;;;4971540;28;19933;-88
2022/08/26 03:04:49;;;;;;;;;;;20.40;93.30;;;;;;4954732;29;19930;-90
2022/08/26 03:07:16;;;;;;;;;;;20.30;93.30;;;;;;4970957;28;19914;-89
2022/08/26 03:09:43;;;;;;;;;;;20.30;93.30;;;;;;4964418;28;19957;-89
2022/08/26 03:14:49;;;;;;;;;;;20.30;93.40;;;;;;4922885;29;20321;-74
2022/08/26 03:17:16;;;;;;;;;;;20.30;93.50;;;;;;4926499;29;20021;-74
2022/08/26 03:19:43;;;;;;;;;;;20.30;93.60;;;;;;4927033;29;20145;-74
2022/08/26 03:22:11;;;;;;;;;;;20.20;93.60;;;;;;4903652;29;19927;-74
2022/08/26 03:24:38;;;;;;;;;;;20.20;93.60;;;;;;4923642;29;19934;-74
2022/08/26 03:27:05;;;;;;;;;;;20.20;93.60;;;;;;4913132;29;20390;-74
2022/08/26 03:32:17;;;;;;;;;;;20.20;93.70;;;;;;4918035;29;20417;-74
2022/08/26 03:34:45;;;;;;;;;;;20.10;93.50;;;;;;4925346;29;19986;-74
2022/08/26 03:37:13;;;;;;;;;;;20.10;93.50;;;;;;4917961;29;19926;-74
2022/08/26 03:39:40;;;;;;;;;;;20.10;93.50;;;;;;4927458;29;20604;-74
2022/08/26 03:42:07;;;;;;;;;;;20.10;93.60;;;;;;4919207;29;19931;-74
2022/08/26 03:44:34;;;;;;;;;;;20.10;93.70;;;;;;4900867;29;20006;-74
2022/08/26 03:47:01;;;;;;;;;;;20.10;93.70;;;;;;4920403;29;19991;-74
2022/08/26 03:49:28;;;;;;;;;;;20.00;93.60;;;;;;4922469;29;19926;-74
2022/08/26 03:51:55;;;;;;;;;;;20.00;93.70;;;;;;4916916;29;19935;-74
2022/08/26 03:54:23;;;;;;;;;;;20.00;93.60;;;;;;4920995;29;20355;-75
2022/08/26 03:56:50;;;;;;;;;;;20.00;93.50;;;;;;4914809;29;20549;-74
2022/08/26 03:59:16;;;;;;;;;;;20.00;93.70;;;;;;4920688;29;20034;-74
2022/08/26 04:01:43;;;;;;;;;;;19.90;93.70;;;;;;4921098;29;20414;-75
2022/08/26 04:04:10;;;;;;;;;;;19.90;93.80;;;;;;4922052;29;19927;-74
2022/08/26 04:06:39;;;;;;;;;;;19.90;93.80;;;;;;4901325;29;19938;-74
2022/08/26 04:09:06;;;;;;;;;;;19.90;93.90;;;;;;4907134;29;20029;-74
2022/08/26 04:11:38;;;;;;;;;;;19.90;93.80;;;;;;4906203;29;20453;-75
2022/08/26 04:14:06;;;;;;;;;;;19.90;93.80;;;;;;4923366;29;19962;-74
2022/08/26 04:16:33;;;;;;;;;;;19.80;93.80;;;;;;4919397;29;19927;-74
2022/08/26 04:19:00;;;;;;;;;;;19.80;93.80;;;;;;4907591;29;19937;-74
2022/08/26 04:21:27;;;;;;;;;;;19.80;93.80;;;;;;4920726;29;19956;-74
2022/08/26 04:23:54;;;;;;;;;;;19.80;93.80;;;;;;4915866;29;19945;-74
2022/08/26 04:26:22;;;;;;;;;;;19.80;93.70;;;;;;4915353;29;20351;-74
2022/08/26 04:28:51;;;;;;;;;;;19.70;93.70;;;;;;4902008;29;20394;-74
2022/08/26 04:31:18;;;;;;;;;;;19.70;93.70;;;;;;4918591;29;19931;-76
2022/08/26 04:33:46;;;;;;;;;;;19.70;93.70;;;;;;4919679;29;19934;-75
2022/08/26 04:36:13;;;;;;;;;;;19.70;93.70;;;;;;4914651;29;19926;-75
2022/08/26 04:38:40;;;;;;;;;;;19.70;93.80;;;;;;4922048;29;19950;-74
2022/08/26 04:41:07;;;;;;;;;;;19.60;93.70;;;;;;4921287;29;20393;-74
2022/08/26 04:43:34;;;;;;;;;;;19.60;93.80;;;;;;4902318;29;19974;-74
2022/08/26 04:46:03;;;;;;;;;;;19.60;93.80;;;;;;4919254;29;19934;-74
2022/08/26 04:48:31;;;;;;;;;;;19.60;93.90;;;;;;4919907;29;19935;-74
2022/08/26 04:50:58;;;;;;;;;;;19.60;94.00;;;;;;4908141;29;20025;-73
2022/08/26 04:53:26;;;;;;;;;;;19.60;94.00;;;;;;4917295;29;20313;-74
2022/08/26 04:55:53;;;;;;;;;;;19.50;93.80;;;;;;4900568;29;19934;-74
2022/08/26 04:58:20;;;;;;;;;;;19.50;93.90;;;;;;4921244;29;19927;-74
2022/08/26 05:00:48;;;;;;;;;;;19.50;94.00;;;;;;4904086;29;20037;-74
2022/08/26 05:03:17;;;;;;;;;;;19.50;94.00;;;;;;4916431;29;20453;-74
2022/08/26 05:05:45;;;;;;;;;;;19.50;94.10;;;;;;4918227;29;19930;-74
2022/08/26 05:08:13;;;;;;;;;;;19.50;94.20;;;;;;4920280;29;19927;-74
2022/08/26 05:10:43;;;;;;;;;;;19.50;94.20;;;;;;4907964;29;19933;-74
2022/08/26 05:13:10;;;;;;;;;;;19.40;94.30;;;;;;4902475;29;19935;-74
2022/08/26 05:15:37;;;;;;;;;;;19.40;94.30;;;;;;4904905;29;19930;-74
2022/08/26 05:18:04;;;;;;;;;;;19.40;94.30;;;;;;4920638;29;19943;-74
2022/08/26 05:20:32;;;;;;;;;;;19.40;94.30;;;;;;4916004;29;20334;-74
2022/08/26 05:23:00;;;;;;;;;;;19.40;94.30;;;;;;4918058;29;19970;-74
2022/08/26 05:25:27;;;;;;;;;;;19.40;94.30;;;;;;4920675;29;19926;-74
2022/08/26 05:27:54;;;;;;;;;;;19.40;94.20;;;;;;4918501;29;19963;-74
2022/08/26 05:30:21;;;;;;;;;;;19.30;94.20;;;;;;4916945;29;20041;-74
2022/08/26 05:32:48;;;;;;;;;;;19.30;94.20;;;;;;4917771;29;19967;-74
2022/08/26 05:35:15;;;;;;;;;;;19.30;94.10;;;;;;4918902;29;19939;-74
2022/08/26 05:37:43;;;;;;;;;;;19.30;94.10;;;;;;4916523;29;19982;-74
2022/08/26 05:40:11;;;;;;;;;;;19.30;94.20;;;;;;4915746;29;19954;-74
2022/08/26 05:42:38;;;;;;;;;;;19.30;94.20;;;;;;4918717;29;19931;-73
2022/08/26 05:45:05;;;;;;;;;;;19.30;94.10;;;;;;4913907;29;19931;-74
2022/08/26 05:47:32;;;;;;;;;;;19.30;94.10;;;;;;4917771;29;19927;-75
2022/08/26 05:49:59;;;;;;;;;;;19.20;94.00;;;;;;4910472;29;20018;-74
2022/08/26 05:52:26;;;;;;;;;;;19.20;94.00;;;;;;4917655;29;19982;-75
2022/08/26 05:54:54;;;;;;;;;;;19.20;94.00;;;;;;4907403;29;19927;-74
2022/08/26 05:57:23;;;;;;;;;;;19.30;94.00;;;;;;4902414;29;20319;-74
2022/08/26 05:59:50;;;;;;;;;;;19.20;94.00;;;;;;4917957;29;20030;-74
2022/08/26 06:02:16;;;;;;;;;;;19.20;94.00;;;;;;4914863;29;19998;-74
2022/08/26 06:04:43;;;;;;;;;;;19.20;94.00;;;;;;4916839;29;20437;-74
2022/08/26 06:07:10;;;;;;;;;;;19.20;94.10;;;;;;4921776;29;19935;-74
2022/08/26 06:09:37;;;;;;;;;;;19.20;94.20;;;;;;4900554;29;19981;-75
2022/08/26 06:12:05;;;;;;;;;;;19.20;94.30;;;;;;4917649;29;19927;-74
2022/08/26 06:14:32;;;;;;;;;;;19.20;94.30;;;;;;4917790;29;19982;-74
2022/08/26 06:16:59;;;;;;;;;;;19.20;94.30;;;;;;4918771;29;19939;-74
2022/08/26 06:19:26;;;;;;;;;;;19.10;94.00;;;;;;4900303;29;19927;-74
2022/08/26 06:21:53;;;;;;;;;;;19.10;94.20;;;;;;4921020;29;19998;-74
2022/08/26 06:27:08;;;;;;;;;;;19.10;94.80;;;;;;4915864;29;20306;-74
2022/08/26 06:29:35;;;;;;;;;;;19.10;94.90;;;;;;4921690;29;20017;-74
2022/08/26 06:32:03;;;;;;;;;;;19.00;95.10;;;;;;4915101;29;20449;-74
2022/08/26 06:34:30;;;;;;;;;;;19.10;95.20;;;;;;4904750;29;19931;-74
2022/08/26 06:36:57;;;;;;;;;;;19.10;95.30;;;;;;4918991;29;20029;-74
2022/08/26 06:39:24;;;;;;;;;;;19.10;95.30;;;;;;4919708;29;20394;-74
2022/08/26 06:41:51;;;;;;;;;;;19.10;95.30;;;;;;4916326;29;20034;-74
2022/08/26 06:44:20;;;;;;;;;;;19.10;95.30;;;;;;4918026;29;19934;-74
2022/08/26 06:46:46;;;;;;;;;;;19.10;95.30;;;;;;4916592;29;19926;-74
2022/08/26 06:49:13;;;;;;;;;;;19.10;95.40;;;;;;4907206;29;19942;-74
2022/08/26 06:51:41;;;;;;;;;;;19.20;95.40;;;;;;4918794;29;20441;-74
2022/08/26 06:54:08;;;;;;;;;;;19.20;95.40;;;;;;4901842;29;19938;-74
2022/08/26 06:56:36;;;;;;;;;;;19.20;95.40;;;;;;4900425;29;20018;-74
2022/08/26 06:59:03;;;;;;;;;;;19.20;95.50;;;;;;4919613;29;20501;-74
2022/08/26 07:01:33;;;;;;;;;;;19.20;95.40;;;;;;4918884;29;20010;-74
2022/08/26 07:04:02;;;;;;;;;;;19.30;95.50;;;;;;4919068;29;19931;-74
2022/08/26 07:06:29;;;;;;;;;;;19.20;95.40;;;;;;4920297;29;19991;-75
2022/08/26 07:09:00;;;;;;;;;;;19.30;95.50;;;;;;4920269;29;20043;-74
2022/08/26 07:11:27;;;;;;;;;;;19.30;95.50;;;;;;4912633;29;19927;-74
2022/08/26 07:13:54;;;;;;;;;;;19.30;95.50;;;;;;4913305;29;19927;-74
2022/08/26 07:16:21;;;;;;;;;;;19.30;95.50;;;;;;4921250;29;20389;-74
2022/08/26 07:18:51;;;;;;;;;;;19.30;95.60;;;;;;4921448;29;19934;-74
2022/08/26 07:21:18;;;;;;;;;;;19.30;95.60;;;;;;4916033;29;19931;-74
2022/08/26 07:23:45;;;;;;;;;;;19.40;95.70;;;;;;4898218;29;19986;-74
2022/08/26 07:26:14;;;;;;;;;;;19.40;95.70;;;;;;4919549;29;20391;-74
2022/08/26 07:28:41;;;;;;;;;;;19.40;95.70;;;;;;4917821;29;20319;-74
2022/08/26 07:31:10;;;;;;;;;;;19.40;95.70;;;;;;4916817;29;19935;-74
2022/08/26 07:33:38;;;;;;;;;;;19.40;96.00;;;;;;5000987;23;20022;-74
2022/08/26 07:36:07;;;;;;;;;;;19.40;95.70;;;;;;4958441;28;19965;-74
2022/08/26 07:38:34;;;;;;;;;;;19.40;95.80;;;;;;4943863;28;20080;-74
2022/08/26 07:41:02;;;;;;;;;;;19.40;95.80;;;;;;4940386;28;20025;-74
2022/08/26 07:43:29;;;;;;;;;;;19.40;95.80;;;;;;4943810;28;20290;-74
2022/08/26 07:45:56;;;;;;;;;;;19.50;95.90;;;;;;4933846;28;19941;-75
2022/08/26 07:48:23;;;;;;;;;;;19.50;95.90;;;;;;4945041;28;20286;-74
2022/08/26 07:50:52;;;;;;;;;;;19.50;95.90;;;;;;4948335;28;20006;-74
2022/08/26 07:53:21;;;;;;;;;;;19.50;96.00;;;;;;4943093;28;20349;-74
2022/08/26 07:55:48;;;;;;;;;;;19.50;96.00;;;;;;4945556;28;20073;-74
2022/08/26 07:58:15;;;;;;;;;;;19.50;96.30;;;;;;4952833;28;19931;-74
2022/08/26 08:00:42;;;;;;;;;;;19.50;96.10;;;;;;4935588;29;19935;-75
2022/08/26 08:03:10;;;;;;;;;;;19.50;96.20;;;;;;4938799;28;19926;-74
2022/08/26 08:05:37;;;;;;;;;;;19.50;96.20;;;;;;4951626;28;19986;-74
2022/08/26 08:08:05;;;;;;;;;;;19.60;96.20;;;;;;4927843;28;19978;-74
2022/08/26 08:10:35;;;;;;;;;;;19.60;96.30;;;;;;4935567;28;19970;-74
2022/08/26 08:13:02;;;;;;;;;;;19.60;96.30;;;;;;4948230;28;20400;-74
2022/08/26 08:15:30;;;;;;;;;;;19.60;96.40;;;;;;4946635;28;19970;-73
2022/08/26 08:17:57;;;;;;;;;;;19.60;96.40;;;;;;4948188;28;20060;-74
2022/08/26 08:20:24;;;;;;;;;;;19.60;96.40;;;;;;4952778;28;20018;-75
2022/08/26 08:22:51;;;;;;;;;;;19.60;96.50;;;;;;4929375;28;19989;-75
2022/08/26 08:25:19;;;;;;;;;;;19.70;96.60;;;;;;4949677;28;19966;-76
2022/08/26 08:27:48;;;;;;;;;;;19.70;96.60;;;;;;4929488;29;19974;-74
2022/08/26 08:30:16;;;;;;;;;;;19.70;96.70;;;;;;4950074;28;19931;-74
2022/08/26 08:32:43;;;;;;;;;;;19.70;96.60;;;;;;4940730;28;19970;-74
2022/08/26 08:35:11;;;;;;;;;;;19.70;96.60;;;;;;4933090;28;20952;-74
2022/08/26 08:37:38;;;;;;;;;;;19.70;96.60;;;;;;4946461;28;20452;-75
2022/08/26 08:40:05;;;;;;;;;;;19.80;96.60;;;;;;4949998;28;19930;-74
2022/08/26 08:42:44;;;;;;;;;;;19.80;96.60;;;;;;4939236;28;19927;-73
2022/08/26 08:45:14;;;;;;;;;;;19.80;96.70;;;;;;4951120;28;19926;-74
2022/08/26 08:47:46;;;;;;;;;;;19.80;96.70;;;;;;4946826;28;19927;-76
2022/08/26 08:50:18;;;;;;;;;;;19.80;96.80;;;;;;4949476;28;19933;-74
2022/08/26 08:52:48;;;;;;;;;;;19.90;96.80;;;;;;4936826;28;19935;-74
2022/08/26 08:55:15;;;;;;;;;;;19.80;96.80;;;;;;4946764;28;20345;-74
2022/08/26 08:57:50;;;;;;;;;;;19.90;96.90;;;;;;4944922;28;19933;-74
2022/08/26 09:00:21;;;;;;;;;;;19.80;96.80;;;;;;4949244;28;19934;-74
2022/08/26 09:02:50;;;;;;;;;;;19.90;96.90;;;;;;4940139;28;19953;-75
2022/08/26 09:05:20;;;;;;;;;;;19.90;96.90;;;;;;4950583;28;19926;-74
2022/08/26 09:07:48;;;;;;;;;;;19.90;97.00;;;;;;4942117;28;19926;-75
2022/08/26 09:10:24;;;;;;;;;;;20.00;97.00;;;;;;4946522;28;19933;-75
2022/08/26 09:12:52;;;;;;;;;;;20.00;97.10;;;;;;4930387;28;19977;-74
2022/08/26 09:15:21;;;;;;;;;;;20.00;97.00;;;;;;4949896;28;19926;-74
2022/08/26 09:17:55;;;;;;;;;;;20.00;97.00;;;;;;4947404;28;20278;-74
2022/08/26 09:20:30;;;;;;;;;;;20.10;97.20;;;;;;4942715;28;19931;-74
2022/08/26 09:22:57;;;;;;;;;;;20.10;97.10;;;;;;4945084;28;19934;-76
2022/08/26 09:25:24;;;;;;;;;;;20.10;97.10;;;;;;4943605;28;20013;-75
2022/08/26 09:27:52;;;;;;;;;;;20.10;97.20;;;;;;4947489;28;19933;-74
2022/08/26 09:30:24;;;;;;;;;;;20.10;97.20;;;;;;4944083;28;19933;-74
2022/08/26 09:32:57;;;;;;;;;;;20.20;97.30;;;;;;4924797;29;20029;-75
2022/08/26 09:35:25;;;;;;;;;;;20.30;97.60;;;;;;4948398;28;19946;-74
2022/08/26 09:37:52;;;;;;;;;;;20.20;97.60;;;;;;4926165;29;19927;-74
2022/08/26 09:40:22;;;;;;;;;;;20.30;97.60;;;;;;4946371;28;20485;-74
2022/08/26 09:43:05;;;;;;;;;;;20.30;97.80;;;;;;4948114;28;19984;-74
2022/08/26 09:45:33;;;;;;;;;;;20.30;97.70;;;;;;4924724;28;19950;-74
2022/08/26 09:48:00;;;;;;;;;;;20.40;97.80;;;;;;4945820;28;19934;-74
2022/08/26 09:50:28;;;;;;;;;;;20.40;97.90;;;;;;4949340;28;19936;-75
2022/08/26 09:53:04;;;;;;;;;;;20.40;97.90;;;;;;4949436;28;19973;-74
2022/08/26 09:55:31;;;;;;;;;;;20.40;97.90;;;;;;4946383;28;19934;-74
2022/08/26 09:57:57;;;;;;;;;;;20.50;98.00;;;;;;4927732;28;20361;-74
2022/08/26 10:00:26;;;;;;;;;;;20.50;98.00;;;;;;4947534;28;19956;-74
2022/08/26 10:02:54;;;;;;;;;;;20.50;98.10;;;;;;4939520;28;19931;-74
2022/08/26 10:05:28;;;;;;;;;;;20.50;98.20;;;;;;4932142;29;19927;-74
2022/08/26 10:07:56;;;;;;;;;;;20.60;98.20;;;;;;4940516;28;19927;-74
2022/08/26 10:10:24;;;;;;;;;;;20.60;98.20;;;;;;4942340;28;19933;-74
2022/08/26 10:12:55;;;;;;;;;;;20.60;98.10;;;;;;4941101;28;19927;-74
2022/08/26 10:15:24;;;;;;;;;;;20.60;98.10;;;;;;4931247;28;19958;-74
2022/08/26 10:17:53;;;;;;;;;;;20.70;98.20;;;;;;4945849;28;19926;-74
2022/08/26 10:20:23;;;;;;;;;;;20.70;98.20;;;;;;4912790;28;19937;-75
2022/08/26 10:22:54;;;;;;;;;;;20.80;98.60;;;;;;4944561;28;20090;-74
2022/08/26 10:25:23;;;;;;;;;;;21.10;98.50;;;;;;4928279;28;20046;-76
2022/08/26 10:27:54;;;;;;;;;;;21.40;98.40;;;;;;4937829;28;21188;-75
2022/08/26 10:30:23;;;;;;;;;;;21.50;98.10;;;;;;4936664;28;20778;-76
2022/08/26 10:32:51;;;;;;;;;;;21.70;98.50;;;;;;4934667;28;19926;-75
2022/08/26 10:35:19;;;;;;;;;;;22.00;98.50;;;;;;4929246;28;19974;-74
2022/08/26 10:37:49;;;;;;;;;;;22.20;98.60;;;;;;4932333;28;19974;-74
2022/08/26 10:40:18;;;;;;;;;;;22.30;98.20;;;;;;4927507;28;20516;-76
2022/08/26 10:42:48;;;;;;;;;;;22.40;98.00;;;;;;4934282;28;20065;-75
2022/08/26 10:45:18;;;;;;;;;;;22.60;97.60;;;;;;4927070;28;19927;-76
2022/08/26 10:47:48;;;;;;;;;;;22.60;97.50;;;;;;4933507;28;21326;-75
2022/08/26 10:50:15;;;;;;;;;;;22.60;97.40;;;;;;4918651;29;19926;-75
2022/08/26 10:52:49;;;;;;;;;;;22.40;97.50;;;;;;4942306;28;20456;-76
2022/08/26 10:55:20;;;;;;;;;;;22.30;97.60;;;;;;4935687;28;20600;-76
2022/08/26 10:57:51;;;;;;;;;;;22.30;97.70;;;;;;4937783;28;19927;-75
2022/08/26 11:03:10;;;;;;;;;;;22.30;97.70;;;;;;4940453;28;19923;-75
2022/08/26 11:05:37;;;;;;;;;;;22.30;97.60;;;;;;4936887;28;19926;-75
2022/08/26 11:08:22;;;;;;;;;;;22.30;97.60;;;;;;4939711;28;20431;-75
2022/08/26 11:10:55;;;;;;;;;;;22.30;97.60;;;;;;4937233;28;19942;-76
2022/08/26 11:13:37;;;;;;;;;;;22.30;97.60;;;;;;4937675;28;20650;-77
2022/08/26 11:16:07;;;;;;;;;;;22.30;97.40;;;;;;4940180;28;19938;-72
2022/08/26 11:18:42;;;;;;;;;;;22.30;97.30;;;;;;4942668;28;19981;-73
2022/08/26 11:21:27;;;;;;;;;;;22.30;97.20;;;;;;4932725;28;20358;-74
2022/08/26 11:23:54;;;;;;;;;;;22.30;97.20;;;;;;4937520;28;20366;-74
2022/08/26 11:26:33;;;;;;;;;;;22.30;97.10;;;;;;4938604;28;19934;-73
2022/08/26 11:29:00;;;;;;;;;;;22.30;97.00;;;;;;4940659;28;19942;-76
2022/08/26 11:31:42;;;;;;;;;;;22.30;96.90;;;;;;4946456;28;19926;-75
2022/08/26 11:34:12;;;;;;;;;;;22.30;96.90;;;;;;4906827;28;19977;-78
2022/08/26 11:36:56;;;;;;;;;;;22.30;96.90;;;;;;4935260;28;20460;-76
2022/08/26 11:39:27;;;;;;;;;;;22.30;96.80;;;;;;4935894;28;19930;-77
2022/08/26 11:41:58;;;;;;;;;;;22.30;96.70;;;;;;4930835;28;19954;-74
2022/08/26 11:44:26;;;;;;;;;;;22.30;96.60;;;;;;4941918;28;19927;-76
2022/08/26 11:46:54;;;;;;;;;;;22.30;96.60;;;;;;4923426;28;19962;-75
2022/08/26 11:49:22;;;;;;;;;;;22.40;96.80;;;;;;4936295;28;21374;-75
2022/08/26 11:51:48;;;;;;;;;;;22.40;97.20;;;;;;4935277;28;19957;-75
2022/08/26 11:54:17;;;;;;;;;;;22.40;97.70;;;;;;4930359;28;20029;-75
2022/08/26 11:56:44;;;;;;;;;;;22.40;98.00;;;;;;4939664;28;19926;-75
2022/08/26 11:59:15;;;;;;;;;;;22.40;98.00;;;;;;4922578;28;19939;-76
2022/08/26 12:01:43;;;;;;;;;;;22.40;98.00;;;;;;4940769;28;20455;-75
2022/08/26 12:04:12;;;;;;;;;;;22.40;98.00;;;;;;4928158;28;19969;-75
2022/08/26 12:06:41;;;;;;;;;;;22.40;98.10;;;;;;4933036;28;19957;-74
2022/08/26 12:09:10;;;;;;;;;;;22.40;98.20;;;;;;4921178;28;19989;-74
2022/08/26 12:11:38;;;;;;;;;;;22.40;98.30;;;;;;4924687;28;19927;-74
2022/08/26 12:14:06;;;;;;;;;;;22.40;98.40;;;;;;4937404;28;19938;-74
2022/08/26 12:16:37;;;;;;;;;;;22.40;98.50;;;;;;4941437;28;20005;-74
2022/08/26 12:19:19;;;;;;;;;;;22.40;98.50;;;;;;4938244;28;19927;-73
2022/08/26 12:21:47;;;;;;;;;;;22.40;98.60;;;;;;4920614;28;19974;-75
2022/08/26 12:24:17;;;;;;;;;;;22.30;98.70;;;;;;4930085;28;19940;-78
2022/08/26 12:26:45;;;;;;;;;;;22.30;98.80;;;;;;4933212;28;19938;-75
2022/08/26 12:29:22;;;;;;;;;;;22.30;98.80;;;;;;4914681;28;19930;-75
2022/08/26 12:31:52;;;;;;;;;;;22.30;99.00;;;;;;4933411;28;19934;-74
2022/08/26 12:34:19;;;;;;;;;;;22.30;99.00;;;;;;4933997;28;19941;-75
2022/08/26 12:36:47;;;;;;;;;;;22.30;99.10;;;;;;4927632;28;19931;-75
2022/08/26 12:39:15;;;;;;;;;;;22.30;99.10;;;;;;4940050;28;20226;-75
2022/08/26 12:41:47;;;;;;;;;;;22.30;99.10;;;;;;4936486;28;20005;-76
2022/08/26 12:44:33;;;;;;;;;;;22.30;99.20;;;;;;4933953;28;20103;-75
2022/08/26 12:47:07;;;;;;;;;;;22.30;99.00;;;;;;4930480;28;20005;-75
2022/08/26 12:49:34;;;;;;;;;;;22.30;99.00;;;;;;4941654;28;19930;-75
2022/08/26 12:52:00;;;;;;;;;;;22.30;99.10;;;;;;4938405;28;20012;-75
2022/08/26 12:54:57;;;;;;;;;;;22.30;98.90;;;;;;4940082;28;19969;-75
2022/08/26 12:57:15;;;;;;;;;;;22.30;98.70;;;;;;4931346;28;19934;-74
2022/08/26 12:59:42;;;;;;;;;;;22.30;98.50;;;;;;4977946;23;20750;-90
2022/08/26 13:02:11;;;;;;;;;;;22.30;98.40;;;;;;4951727;28;19926;-90
2022/08/26 13:04:49;;;;;;;;;;;22.30;98.40;;;;;;4949246;28;19957;-91
2022/08/26 13:14:09;;;;;;;;;;;22.40;99.10;;;;;;4943632;28;19945;-91
2022/08/26 13:17:02;;;;;;;;;;;22.40;98.70;;;;;;4965511;28;20063;-92
2022/08/26 13:19:36;;;;;;;;;;;22.50;98.40;;;;;;4946962;28;19934;-92
2022/08/26 13:25:25;;;;;;;;;;;22.50;97.90;;;;;;4955723;28;19930;-93
2022/08/26 13:31:13;;;;;;;;;;;22.60;98.60;;;;;;4955428;28;19934;-92
2022/08/26 13:33:59;;;;;;;;;;;22.70;98.90;;;;;;4961772;28;19941;-92
2022/08/26 13:36:47;;;;;;;;;;;22.70;98.40;;;;;;4959538;28;19938;-91
2022/08/26 13:39:20;;;;;;;;;;;22.80;99.20;;;;;;4942947;28;19989;-91
2022/08/26 13:44:58;;;;;;;;;;;22.90;97.90;;;;;;4963194;28;19930;-90
2022/08/26 13:47:33;;;;;;;;;;;23.00;97.70;;;;;;4958870;28;20404;-90
2022/08/26 13:50:05;;;;;;;;;;;23.10;98.30;;;;;;4963233;28;19930;-90
2022/08/26 13:52:42;;;;;;;;;;;23.10;98.10;;;;;;4935904;28;20419;-90
2022/08/26 13:55:12;;;;;;;;;;;23.10;98.10;;;;;;4948266;28;19934;-93
2022/08/26 13:57:42;;;;;;;;;;;23.10;98.10;;;;;;4943279;28;19950;-93
2022/08/26 14:00:25;;;;;;;;;;;23.20;98.90;;;;;;4964017;28;19945;-92
2022/08/26 14:02:58;;;;;;;;;;;23.20;98.30;;;;;;4965690;28;19945;-91
2022/08/26 14:05:26;;;;;;;;;;;23.20;97.20;;;;;;4962182;28;19938;-89
2022/08/26 14:08:00;;;;;;;;;;;23.30;96.80;;;;;;4964004;28;19938;-89
2022/08/26 14:13:33;;;;;;;;;;;23.30;97.30;;;;;;4956803;28;19965;-91
2022/08/26 14:16:09;;;;;;;;;;;23.30;97.50;;;;;;4973007;28;20029;-90
2022/08/26 14:18:40;;;;;;;;;;;23.40;97.70;;;;;;4966872;28;19927;-92
2022/08/26 14:24:03;;;;;;;;;;;23.40;97.70;;;;;;4953359;28;20334;-91
2022/08/26 14:26:33;;;;;;;;;;;23.40;97.70;;;;;;4957334;28;19926;-90
2022/08/26 14:29:02;;;;;;;;;;;23.50;97.60;;;;;;4953391;28;20409;-92
2022/08/26 14:31:31;;;;;;;;;;;23.50;97.50;;;;;;4953741;28;20388;-91
2022/08/26 14:36:51;;;;;;;;;;;23.50;97.50;;;;;;4954778;28;19926;-91
2022/08/26 14:39:46;;;;;;;;;;;23.60;97.50;;;;;;4949830;28;19977;-91
2022/08/26 14:42:24;;;;;;;;;;;23.60;97.50;;;;;;4971865;28;19926;-92
2022/08/26 14:48:04;;;;;;;;;;;23.70;97.40;;;;;;4974786;28;20368;-91
2022/08/26 14:59:44;;;;;;;;;;;23.80;96.90;;;;;;4974486;28;20388;-90
2022/08/26 15:02:23;;;;;;;;;;;24.40;95.80;;;;;;4974686;28;19926;-89
2022/08/26 15:05:07;;;;;;;;;;;24.50;95.70;;;;;;4972684;28;19930;-90
2022/08/26 15:07:52;;;;;;;;;;;24.60;95.20;;;;;;4962332;28;20317;-89
2022/08/26 15:13:18;;;;;;;;;;;24.40;93.20;;;;;;4966944;28;19926;-92
2022/08/26 15:15:56;;;;;;;;;;;24.50;93.00;;;;;;4948421;28;19930;-92
2022/08/26 15:18:54;;;;;;;;;;;24.60;93.30;;;;;;4963526;28;20029;-90
2022/08/26 15:21:23;;;;;;;;;;;24.50;93.30;;;;;;4944233;28;19953;-93
2022/08/26 15:27:11;;;;;;;;;;;24.50;93.80;;;;;;4962319;28;19925;-96